sensor_id;sensor_type;location;lat;lon;timestamp;P1;durP1;ratioP1;P2;durP2;ratioP2
42478;SDS011;28110;47.080;9.476;2022-10-18T00:02:05;5.97;;;2.20;;
42478;SDS011;28110;47.080;9.476;2022-10-18T00:04:31;5.68;;;1.80;;
42478;SDS011;28110;47.080;9.476;2022-10-18T00:06:57;6.13;;;2.00;;
42478;SDS011;28110;47.080;9.476;2022-10-18T00:09:23;8.07;;;2.25;;
42478;SDS011;28110;47.080;9.476;2022-10-18T00:11:48;5.53;;;2.00;;
42478;SDS011;28110;47.080;9.476;2022-10-18T00:14:15;5.38;;;2.10;;
42478;SDS011;28110;47.080;9.476;2022-10-18T00:16:41;6.13;;;2.10;;
42478;SDS011;28110;47.080;9.476;2022-10-18T00:19:06;7.37;;;2.20;;
42478;SDS011;28110;47.080;9.476;2022-10-18T00:21:32;6.03;;;2.10;;
42478;SDS011;28110;47.080;9.476;2022-10-18T00:23:58;7.83;;;2.30;;
42478;SDS011;28110;47.080;9.476;2022-10-18T00:26:24;6.37;;;1.80;;
42478;SDS011;28110;47.080;9.476;2022-10-18T00:28:52;5.57;;;1.98;;
42478;SDS011;28110;47.080;9.476;2022-10-18T00:31:25;4.63;;;1.90;;
42478;SDS011;28110;47.080;9.476;2022-10-18T00:33:53;5.22;;;2.05;;
42478;SDS011;28110;47.080;9.476;2022-10-18T00:36:21;8.45;;;1.90;;
42478;SDS011;28110;47.080;9.476;2022-10-18T00:38:48;5.50;;;2.20;;
42478;SDS011;28110;47.080;9.476;2022-10-18T00:41:16;4.75;;;2.05;;
42478;SDS011;28110;47.080;9.476;2022-10-18T00:46:28;3.78;;;2.17;;
42478;SDS011;28110;47.080;9.476;2022-10-18T00:48:57;6.78;;;2.00;;
42478;SDS011;28110;47.080;9.476;2022-10-18T00:51:26;3.43;;;1.77;;
42478;SDS011;28110;47.080;9.476;2022-10-18T00:53:56;2.92;;;1.85;;
42478;SDS011;28110;47.080;9.476;2022-10-18T00:56:22;4.05;;;2.03;;
42478;SDS011;28110;47.080;9.476;2022-10-18T00:58:48;4.50;;;1.90;;
42478;SDS011;28110;47.080;9.476;2022-10-18T01:01:14;4.93;;;1.95;;
42478;SDS011;28110;47.080;9.476;2022-10-18T01:03:40;5.17;;;2.50;;
42478;SDS011;28110;47.080;9.476;2022-10-18T01:06:06;5.07;;;2.17;;
42478;SDS011;28110;47.080;9.476;2022-10-18T01:11:11;3.92;;;1.80;;
42478;SDS011;28110;47.080;9.476;2022-10-18T01:16:42;13.50;;;2.53;;
42478;SDS011;28110;47.080;9.476;2022-10-18T01:21:54;5.22;;;2.00;;
42478;SDS011;28110;47.080;9.476;2022-10-18T01:27:33;4.13;;;1.90;;
42478;SDS011;28110;47.080;9.476;2022-10-18T01:30:34;6.03;;;2.25;;
42478;SDS011;28110;47.080;9.476;2022-10-18T01:33:21;4.38;;;1.83;;
42478;SDS011;28110;47.080;9.476;2022-10-18T01:36:19;6.18;;;2.15;;
42478;SDS011;28110;47.080;9.476;2022-10-18T01:38:56;5.00;;;2.22;;
42478;SDS011;28110;47.080;9.476;2022-10-18T01:41:25;5.13;;;2.72;;
42478;SDS011;28110;47.080;9.476;2022-10-18T01:43:53;8.98;;;2.55;;
42478;SDS011;28110;47.080;9.476;2022-10-18T01:46:22;3.78;;;1.80;;
42478;SDS011;28110;47.080;9.476;2022-10-18T01:48:50;4.53;;;1.90;;
42478;SDS011;28110;47.080;9.476;2022-10-18T01:51:18;5.45;;;2.13;;
42478;SDS011;28110;47.080;9.476;2022-10-18T01:53:47;4.50;;;1.92;;
42478;SDS011;28110;47.080;9.476;2022-10-18T02:01:49;5.80;;;2.10;;
42478;SDS011;28110;47.080;9.476;2022-10-18T02:04:54;3.67;;;1.85;;
42478;SDS011;28110;47.080;9.476;2022-10-18T02:07:33;6.75;;;1.75;;
42478;SDS011;28110;47.080;9.476;2022-10-18T02:10:07;3.38;;;2.05;;
42478;SDS011;28110;47.080;9.476;2022-10-18T02:12:38;4.47;;;2.20;;
42478;SDS011;28110;47.080;9.476;2022-10-18T02:15:07;4.87;;;2.30;;
42478;SDS011;28110;47.080;9.476;2022-10-18T02:17:34;6.18;;;1.85;;
42478;SDS011;28110;47.080;9.476;2022-10-18T02:20:02;5.78;;;2.13;;
42478;SDS011;28110;47.080;9.476;2022-10-18T02:22:32;5.25;;;1.77;;
42478;SDS011;28110;47.080;9.476;2022-10-18T02:25:01;6.55;;;2.20;;
42478;SDS011;28110;47.080;9.476;2022-10-18T02:27:30;5.80;;;2.07;;
42478;SDS011;28110;47.080;9.476;2022-10-18T02:29:55;4.13;;;2.20;;
42478;SDS011;28110;47.080;9.476;2022-10-18T02:32:33;8.85;;;2.17;;
42478;SDS011;28110;47.080;9.476;2022-10-18T02:35:10;3.10;;;1.77;;
42478;SDS011;28110;47.080;9.476;2022-10-18T02:37:42;4.30;;;2.13;;
42478;SDS011;28110;47.080;9.476;2022-10-18T02:40:10;5.20;;;1.83;;
42478;SDS011;28110;47.080;9.476;2022-10-18T02:42:39;4.77;;;1.90;;
42478;SDS011;28110;47.080;9.476;2022-10-18T02:45:10;4.20;;;2.10;;
42478;SDS011;28110;47.080;9.476;2022-10-18T02:47:37;5.57;;;1.70;;
42478;SDS011;28110;47.080;9.476;2022-10-18T02:50:02;4.80;;;1.80;;
42478;SDS011;28110;47.080;9.476;2022-10-18T02:52:28;5.13;;;1.83;;
42478;SDS011;28110;47.080;9.476;2022-10-18T02:54:54;8.13;;;2.10;;
42478;SDS011;28110;47.080;9.476;2022-10-18T02:57:19;4.18;;;2.30;;
42478;SDS011;28110;47.080;9.476;2022-10-18T02:59:45;8.93;;;2.20;;
42478;SDS011;28110;47.080;9.476;2022-10-18T03:02:10;6.28;;;2.03;;
42478;SDS011;28110;47.080;9.476;2022-10-18T03:04:36;5.20;;;1.63;;
42478;SDS011;28110;47.080;9.476;2022-10-18T03:07:01;5.13;;;1.73;;
42478;SDS011;28110;47.080;9.476;2022-10-18T03:09:27;4.63;;;2.03;;
42478;SDS011;28110;47.080;9.476;2022-10-18T03:11:53;4.15;;;2.00;;
42478;SDS011;28110;47.080;9.476;2022-10-18T03:14:18;3.10;;;1.90;;
42478;SDS011;28110;47.080;9.476;2022-10-18T03:16:44;2.45;;;1.65;;
42478;SDS011;28110;47.080;9.476;2022-10-18T03:19:09;2.40;;;1.50;;
42478;SDS011;28110;47.080;9.476;2022-10-18T03:21:35;4.47;;;1.60;;
42478;SDS011;28110;47.080;9.476;2022-10-18T03:24:00;3.38;;;1.73;;
42478;SDS011;28110;47.080;9.476;2022-10-18T03:26:27;4.00;;;1.73;;
42478;SDS011;28110;47.080;9.476;2022-10-18T03:28:52;3.60;;;1.50;;
42478;SDS011;28110;47.080;9.476;2022-10-18T03:31:18;3.13;;;1.50;;
42478;SDS011;28110;47.080;9.476;2022-10-18T03:33:44;5.00;;;1.60;;
42478;SDS011;28110;47.080;9.476;2022-10-18T03:36:10;1.95;;;1.35;;
42478;SDS011;28110;47.080;9.476;2022-10-18T03:38:36;2.90;;;1.57;;
42478;SDS011;28110;47.080;9.476;2022-10-18T03:41:02;4.55;;;1.73;;
42478;SDS011;28110;47.080;9.476;2022-10-18T03:43:27;4.80;;;1.73;;
42478;SDS011;28110;47.080;9.476;2022-10-18T03:45:53;2.40;;;1.70;;
42478;SDS011;28110;47.080;9.476;2022-10-18T03:48:19;7.10;;;1.60;;
42478;SDS011;28110;47.080;9.476;2022-10-18T03:50:44;1.98;;;1.45;;
42478;SDS011;28110;47.080;9.476;2022-10-18T03:53:10;3.40;;;1.60;;
42478;SDS011;28110;47.080;9.476;2022-10-18T03:55:36;9.20;;;1.83;;
42478;SDS011;28110;47.080;9.476;2022-10-18T03:58:02;2.70;;;1.30;;
42478;SDS011;28110;47.080;9.476;2022-10-18T04:00:27;3.60;;;1.60;;
42478;SDS011;28110;47.080;9.476;2022-10-18T04:02:53;5.00;;;1.57;;
42478;SDS011;28110;47.080;9.476;2022-10-18T04:05:18;5.93;;;2.10;;
42478;SDS011;28110;47.080;9.476;2022-10-18T04:07:44;2.70;;;1.60;;
42478;SDS011;28110;47.080;9.476;2022-10-18T04:10:10;6.00;;;1.73;;
42478;SDS011;28110;47.080;9.476;2022-10-18T04:12:35;3.10;;;1.58;;
42478;SDS011;28110;47.080;9.476;2022-10-18T04:15:01;2.93;;;1.63;;
42478;SDS011;28110;47.080;9.476;2022-10-18T04:17:27;3.65;;;1.38;;
42478;SDS011;28110;47.080;9.476;2022-10-18T04:19:52;7.57;;;1.90;;
42478;SDS011;28110;47.080;9.476;2022-10-18T04:22:18;3.53;;;1.70;;
42478;SDS011;28110;47.080;9.476;2022-10-18T04:24:43;4.32;;;1.70;;
42478;SDS011;28110;47.080;9.476;2022-10-18T04:27:09;5.47;;;2.07;;
42478;SDS011;28110;47.080;9.476;2022-10-18T04:29:34;6.35;;;1.92;;
42478;SDS011;28110;47.080;9.476;2022-10-18T04:32:00;4.03;;;1.58;;
42478;SDS011;28110;47.080;9.476;2022-10-18T04:34:26;2.83;;;1.70;;
42478;SDS011;28110;47.080;9.476;2022-10-18T04:36:51;5.47;;;1.60;;
42478;SDS011;28110;47.080;9.476;2022-10-18T04:39:18;5.50;;;1.70;;
42478;SDS011;28110;47.080;9.476;2022-10-18T04:41:43;3.20;;;1.70;;
42478;SDS011;28110;47.080;9.476;2022-10-18T04:44:09;6.53;;;1.80;;
42478;SDS011;28110;47.080;9.476;2022-10-18T04:46:35;3.33;;;1.80;;
42478;SDS011;28110;47.080;9.476;2022-10-18T04:49:00;4.70;;;2.03;;
42478;SDS011;28110;47.080;9.476;2022-10-18T04:51:27;3.38;;;1.67;;
42478;SDS011;28110;47.080;9.476;2022-10-18T04:53:53;5.57;;;2.53;;
42478;SDS011;28110;47.080;9.476;2022-10-18T04:56:19;5.10;;;1.83;;
42478;SDS011;28110;47.080;9.476;2022-10-18T04:58:44;3.70;;;1.80;;
42478;SDS011;28110;47.080;9.476;2022-10-18T05:01:10;5.18;;;2.15;;
42478;SDS011;28110;47.080;9.476;2022-10-18T05:03:36;4.53;;;1.73;;
42478;SDS011;28110;47.080;9.476;2022-10-18T05:06:01;2.57;;;1.50;;
42478;SDS011;28110;47.080;9.476;2022-10-18T05:08:27;3.57;;;1.47;;
42478;SDS011;28110;47.080;9.476;2022-10-18T05:10:53;2.70;;;1.25;;
42478;SDS011;28110;47.080;9.476;2022-10-18T05:13:18;3.40;;;1.50;;
42478;SDS011;28110;47.080;9.476;2022-10-18T05:15:45;3.33;;;1.52;;
42478;SDS011;28110;47.080;9.476;2022-10-18T05:18:11;3.92;;;1.70;;
42478;SDS011;28110;47.080;9.476;2022-10-18T05:20:36;3.97;;;1.75;;
42478;SDS011;28110;47.080;9.476;2022-10-18T05:23:02;4.23;;;1.80;;
42478;SDS011;28110;47.080;9.476;2022-10-18T05:25:28;5.45;;;1.92;;
42478;SDS011;28110;47.080;9.476;2022-10-18T05:27:54;4.07;;;1.65;;
42478;SDS011;28110;47.080;9.476;2022-10-18T05:30:20;2.90;;;1.40;;
42478;SDS011;28110;47.080;9.476;2022-10-18T05:32:46;2.58;;;1.50;;
42478;SDS011;28110;47.080;9.476;2022-10-18T05:35:12;1.53;;;1.40;;
42478;SDS011;28110;47.080;9.476;2022-10-18T05:37:37;3.03;;;1.90;;
42478;SDS011;28110;47.080;9.476;2022-10-18T05:40:03;5.93;;;1.80;;
42478;SDS011;28110;47.080;9.476;2022-10-18T05:42:29;2.10;;;1.30;;
42478;SDS011;28110;47.080;9.476;2022-10-18T05:44:54;5.63;;;1.73;;
42478;SDS011;28110;47.080;9.476;2022-10-18T05:47:20;5.03;;;1.40;;
42478;SDS011;28110;47.080;9.476;2022-10-18T05:49:45;5.63;;;1.60;;
42478;SDS011;28110;47.080;9.476;2022-10-18T05:52:11;2.20;;;1.40;;
42478;SDS011;28110;47.080;9.476;2022-10-18T05:54:37;2.40;;;1.63;;
42478;SDS011;28110;47.080;9.476;2022-10-18T05:57:02;4.97;;;1.50;;
42478;SDS011;28110;47.080;9.476;2022-10-18T05:59:28;2.55;;;1.50;;
42478;SDS011;28110;47.080;9.476;2022-10-18T06:01:54;2.97;;;1.70;;
42478;SDS011;28110;47.080;9.476;2022-10-18T06:04:19;3.63;;;1.70;;
42478;SDS011;28110;47.080;9.476;2022-10-18T06:06:45;4.90;;;1.75;;
42478;SDS011;28110;47.080;9.476;2022-10-18T06:09:10;4.63;;;1.60;;
42478;SDS011;28110;47.080;9.476;2022-10-18T06:11:36;4.73;;;1.50;;
42478;SDS011;28110;47.080;9.476;2022-10-18T06:14:02;2.15;;;1.25;;
42478;SDS011;28110;47.080;9.476;2022-10-18T06:16:28;4.70;;;1.45;;
42478;SDS011;28110;47.080;9.476;2022-10-18T06:18:55;3.53;;;1.50;;
42478;SDS011;28110;47.080;9.476;2022-10-18T06:21:21;1.73;;;1.13;;
42478;SDS011;28110;47.080;9.476;2022-10-18T06:23:48;4.88;;;1.70;;
42478;SDS011;28110;47.080;9.476;2022-10-18T06:26:15;4.37;;;1.57;;
42478;SDS011;28110;47.080;9.476;2022-10-18T06:28:40;3.85;;;1.40;;
42478;SDS011;28110;47.080;9.476;2022-10-18T06:31:06;4.17;;;1.70;;
42478;SDS011;28110;47.080;9.476;2022-10-18T06:33:32;3.88;;;1.67;;
42478;SDS011;28110;47.080;9.476;2022-10-18T06:36:01;2.50;;;1.30;;
42478;SDS011;28110;47.080;9.476;2022-10-18T06:38:32;4.60;;;1.48;;
42478;SDS011;28110;47.080;9.476;2022-10-18T06:40:58;6.97;;;1.70;;
42478;SDS011;28110;47.080;9.476;2022-10-18T06:43:24;7.28;;;1.85;;
42478;SDS011;28110;47.080;9.476;2022-10-18T06:45:50;4.90;;;1.75;;
42478;SDS011;28110;47.080;9.476;2022-10-18T06:48:16;2.70;;;1.35;;
42478;SDS011;28110;47.080;9.476;2022-10-18T06:50:49;5.83;;;1.80;;
42478;SDS011;28110;47.080;9.476;2022-10-18T06:53:15;2.20;;;1.40;;
42478;SDS011;28110;47.080;9.476;2022-10-18T06:55:41;4.10;;;1.90;;
42478;SDS011;28110;47.080;9.476;2022-10-18T06:58:06;2.70;;;1.60;;
42478;SDS011;28110;47.080;9.476;2022-10-18T07:00:32;3.10;;;1.60;;
42478;SDS011;28110;47.080;9.476;2022-10-18T07:02:57;2.27;;;1.43;;
42478;SDS011;28110;47.080;9.476;2022-10-18T07:05:23;4.07;;;1.65;;
42478;SDS011;28110;47.080;9.476;2022-10-18T07:07:48;3.93;;;1.80;;
42478;SDS011;28110;47.080;9.476;2022-10-18T07:10:14;2.30;;;1.70;;
42478;SDS011;28110;47.080;9.476;2022-10-18T07:12:39;6.22;;;1.83;;
42478;SDS011;28110;47.080;9.476;2022-10-18T07:15:05;4.40;;;1.60;;
42478;SDS011;28110;47.080;9.476;2022-10-18T07:17:31;3.80;;;1.95;;
42478;SDS011;28110;47.080;9.476;2022-10-18T07:19:56;5.77;;;1.90;;
42478;SDS011;28110;47.080;9.476;2022-10-18T07:22:22;6.77;;;1.90;;
42478;SDS011;28110;47.080;9.476;2022-10-18T07:24:47;5.88;;;1.98;;
42478;SDS011;28110;47.080;9.476;2022-10-18T07:27:13;4.93;;;2.50;;
42478;SDS011;28110;47.080;9.476;2022-10-18T07:29:38;5.83;;;2.10;;
42478;SDS011;28110;47.080;9.476;2022-10-18T07:32:04;5.45;;;2.08;;
42478;SDS011;28110;47.080;9.476;2022-10-18T07:34:30;8.97;;;2.10;;
42478;SDS011;28110;47.080;9.476;2022-10-18T07:36:56;6.22;;;1.70;;
42478;SDS011;28110;47.080;9.476;2022-10-18T07:39:21;2.87;;;1.60;;
42478;SDS011;28110;47.080;9.476;2022-10-18T07:41:47;6.57;;;2.00;;
42478;SDS011;28110;47.080;9.476;2022-10-18T07:44:12;4.20;;;1.60;;
42478;SDS011;28110;47.080;9.476;2022-10-18T07:46:38;5.57;;;1.97;;
42478;SDS011;28110;47.080;9.476;2022-10-18T07:49:03;8.27;;;2.00;;
42478;SDS011;28110;47.080;9.476;2022-10-18T07:51:29;2.95;;;1.77;;
42478;SDS011;28110;47.080;9.476;2022-10-18T07:53:56;4.15;;;1.90;;
42478;SDS011;28110;47.080;9.476;2022-10-18T07:56:22;3.53;;;1.77;;
42478;SDS011;28110;47.080;9.476;2022-10-18T07:58:49;5.32;;;1.70;;
42478;SDS011;28110;47.080;9.476;2022-10-18T08:01:16;4.53;;;1.50;;
42478;SDS011;28110;47.080;9.476;2022-10-18T08:03:43;3.63;;;2.07;;
42478;SDS011;28110;47.080;9.476;2022-10-18T08:06:10;4.07;;;1.73;;
42478;SDS011;28110;47.080;9.476;2022-10-18T08:08:37;4.17;;;1.40;;
42478;SDS011;28110;47.080;9.476;2022-10-18T08:11:05;3.05;;;1.83;;
42478;SDS011;28110;47.080;9.476;2022-10-18T08:13:39;4.05;;;1.80;;
42478;SDS011;28110;47.080;9.476;2022-10-18T08:16:06;5.05;;;1.60;;
42478;SDS011;28110;47.080;9.476;2022-10-18T08:18:33;4.43;;;2.10;;
42478;SDS011;28110;47.080;9.476;2022-10-18T08:21:00;5.83;;;1.67;;
42478;SDS011;28110;47.080;9.476;2022-10-18T08:23:27;2.95;;;1.75;;
42478;SDS011;28110;47.080;9.476;2022-10-18T08:25:53;5.18;;;1.70;;
42478;SDS011;28110;47.080;9.476;2022-10-18T08:28:19;2.87;;;1.77;;
42478;SDS011;28110;47.080;9.476;2022-10-18T08:30:44;2.78;;;1.60;;
42478;SDS011;28110;47.080;9.476;2022-10-18T08:33:10;3.37;;;1.60;;
42478;SDS011;28110;47.080;9.476;2022-10-18T08:35:35;2.00;;;1.60;;
42478;SDS011;28110;47.080;9.476;2022-10-18T08:38:01;3.47;;;1.50;;
42478;SDS011;28110;47.080;9.476;2022-10-18T08:40:27;2.20;;;1.30;;
42478;SDS011;28110;47.080;9.476;2022-10-18T08:43:05;8.73;;;1.90;;
42478;SDS011;28110;47.080;9.476;2022-10-18T08:45:38;4.22;;;1.77;;
42478;SDS011;28110;47.080;9.476;2022-10-18T08:48:05;3.67;;;1.80;;
42478;SDS011;28110;47.080;9.476;2022-10-18T08:50:40;5.43;;;2.00;;
42478;SDS011;28110;47.080;9.476;2022-10-18T08:55:45;2.70;;;1.48;;
42478;SDS011;28110;47.080;9.476;2022-10-18T08:58:20;3.28;;;1.70;;
42478;SDS011;28110;47.080;9.476;2022-10-18T09:15:21;3.65;;;2.20;;
42478;SDS011;28110;47.080;9.476;2022-10-18T09:21:10;4.70;;;1.60;;
42478;SDS011;28110;47.080;9.476;2022-10-18T09:26:31;7.88;;;1.95;;
42478;SDS011;28110;47.080;9.476;2022-10-18T09:29:09;3.28;;;1.77;;
42478;SDS011;28110;47.080;9.476;2022-10-18T09:31:59;7.07;;;2.08;;
42478;SDS011;28110;47.080;9.476;2022-10-18T09:34:57;3.47;;;1.37;;
42478;SDS011;28110;47.080;9.476;2022-10-18T09:37:36;5.30;;;1.50;;
42478;SDS011;28110;47.080;9.476;2022-10-18T09:40:04;3.70;;;1.40;;
42478;SDS011;28110;47.080;9.476;2022-10-18T09:42:40;3.55;;;1.70;;
42478;SDS011;28110;47.080;9.476;2022-10-18T09:48:45;4.77;;;1.60;;
42478;SDS011;28110;47.080;9.476;2022-10-18T09:58:45;6.65;;;1.85;;
42478;SDS011;28110;47.080;9.476;2022-10-18T10:01:17;2.43;;;1.33;;
42478;SDS011;28110;47.080;9.476;2022-10-18T10:03:48;4.68;;;1.70;;
42478;SDS011;28110;47.080;9.476;2022-10-18T10:06:15;2.10;;;1.58;;
42478;SDS011;28110;47.080;9.476;2022-10-18T10:08:53;2.70;;;1.55;;
42478;SDS011;28110;47.080;9.476;2022-10-18T10:11:46;6.13;;;1.83;;
42478;SDS011;28110;47.080;9.476;2022-10-18T10:22:05;5.38;;;2.47;;
42478;SDS011;28110;47.080;9.476;2022-10-18T10:24:47;3.92;;;1.73;;
42478;SDS011;28110;47.080;9.476;2022-10-18T10:27:16;2.73;;;1.60;;
42478;SDS011;28110;47.080;9.476;2022-10-18T10:29:50;7.32;;;2.30;;
42478;SDS011;28110;47.080;9.476;2022-10-18T10:32:20;6.03;;;1.70;;
42478;SDS011;28110;47.080;9.476;2022-10-18T10:34:46;3.08;;;1.80;;
42478;SDS011;28110;47.080;9.476;2022-10-18T10:37:23;5.72;;;2.10;;
42478;SDS011;28110;47.080;9.476;2022-10-18T10:42:35;5.60;;;1.58;;
42478;SDS011;28110;47.080;9.476;2022-10-18T10:45:12;3.65;;;1.70;;
42478;SDS011;28110;47.080;9.476;2022-10-18T10:47:38;6.10;;;1.73;;
42478;SDS011;28110;47.080;9.476;2022-10-18T10:50:10;5.97;;;2.17;;
42478;SDS011;28110;47.080;9.476;2022-10-18T10:52:37;2.72;;;1.70;;
42478;SDS011;28110;47.080;9.476;2022-10-18T10:55:05;4.45;;;1.85;;
42478;SDS011;28110;47.080;9.476;2022-10-18T10:57:48;5.18;;;1.85;;
42478;SDS011;28110;47.080;9.476;2022-10-18T11:00:36;3.13;;;1.50;;
42478;SDS011;28110;47.080;9.476;2022-10-18T11:03:06;3.00;;;1.80;;
42478;SDS011;28110;47.080;9.476;2022-10-18T11:05:45;7.32;;;1.70;;
42478;SDS011;28110;47.080;9.476;2022-10-18T11:08:17;7.93;;;2.03;;
42478;SDS011;28110;47.080;9.476;2022-10-18T11:10:52;2.28;;;1.88;;
42478;SDS011;28110;47.080;9.476;2022-10-18T11:13:34;5.50;;;1.73;;
42478;SDS011;28110;47.080;9.476;2022-10-18T11:16:31;7.53;;;2.03;;
42478;SDS011;28110;47.080;9.476;2022-10-18T11:19:13;5.40;;;1.85;;
42478;SDS011;28110;47.080;9.476;2022-10-18T11:22:01;6.43;;;2.00;;
42478;SDS011;28110;47.080;9.476;2022-10-18T11:24:30;5.10;;;2.13;;
42478;SDS011;28110;47.080;9.476;2022-10-18T11:34:47;4.03;;;2.20;;
42478;SDS011;28110;47.080;9.476;2022-10-18T11:37:30;4.57;;;1.75;;
42478;SDS011;28110;47.080;9.476;2022-10-18T11:40:27;2.70;;;1.80;;
42478;SDS011;28110;47.080;9.476;2022-10-18T11:43:41;3.90;;;1.83;;
42478;SDS011;28110;47.080;9.476;2022-10-18T11:46:03;3.13;;;1.90;;
42478;SDS011;28110;47.080;9.476;2022-10-18T11:48:59;3.30;;;1.77;;
42478;SDS011;28110;47.080;9.476;2022-10-18T11:54:46;5.63;;;1.77;;
42478;SDS011;28110;47.080;9.476;2022-10-18T12:05:02;2.95;;;1.80;;
42478;SDS011;28110;47.080;9.476;2022-10-18T12:07:35;5.18;;;1.90;;
42478;SDS011;28110;47.080;9.476;2022-10-18T12:10:05;3.42;;;1.70;;
42478;SDS011;28110;47.080;9.476;2022-10-18T12:12:36;2.70;;;1.60;;
42478;SDS011;28110;47.080;9.476;2022-10-18T12:15:15;6.30;;;2.03;;
42478;SDS011;28110;47.080;9.476;2022-10-18T12:17:50;2.20;;;1.65;;
42478;SDS011;28110;47.080;9.476;2022-10-18T12:20:34;5.75;;;2.10;;
42478;SDS011;28110;47.080;9.476;2022-10-18T12:23:32;5.20;;;2.15;;
42478;SDS011;28110;47.080;9.476;2022-10-18T12:26:05;5.40;;;2.03;;
42478;SDS011;28110;47.080;9.476;2022-10-18T12:34:48;8.90;;;2.20;;
42478;SDS011;28110;47.080;9.476;2022-10-18T12:39:32;5.57;;;2.05;;
42478;SDS011;28110;47.080;9.476;2022-10-18T12:42:00;4.27;;;2.10;;
42478;SDS011;28110;47.080;9.476;2022-10-18T12:44:30;3.53;;;2.20;;
42478;SDS011;28110;47.080;9.476;2022-10-18T12:46:58;7.82;;;2.67;;
42478;SDS011;28110;47.080;9.476;2022-10-18T12:51:52;6.95;;;2.10;;
42478;SDS011;28110;47.080;9.476;2022-10-18T12:54:24;6.90;;;2.78;;
42478;SDS011;28110;47.080;9.476;2022-10-18T12:56:55;13.00;;;2.70;;
42478;SDS011;28110;47.080;9.476;2022-10-18T13:09:22;6.97;;;2.33;;
42478;SDS011;28110;47.080;9.476;2022-10-18T13:11:55;3.75;;;2.20;;
42478;SDS011;28110;47.080;9.476;2022-10-18T13:22:50;5.87;;;2.17;;
42478;SDS011;28110;47.080;9.476;2022-10-18T13:31:18;7.82;;;2.47;;
42478;SDS011;28110;47.080;9.476;2022-10-18T13:39:39;8.73;;;2.50;;
42478;SDS011;28110;47.080;9.476;2022-10-18T13:44:43;6.07;;;2.40;;
42478;SDS011;28110;47.080;9.476;2022-10-18T13:47:11;3.60;;;2.00;;
42478;SDS011;28110;47.080;9.476;2022-10-18T13:52:07;5.65;;;2.35;;
42478;SDS011;28110;47.080;9.476;2022-10-18T13:54:55;9.63;;;2.27;;
42478;SDS011;28110;47.080;9.476;2022-10-18T14:08:44;4.83;;;2.20;;
42478;SDS011;28110;47.080;9.476;2022-10-18T14:11:21;5.00;;;2.20;;
42478;SDS011;28110;47.080;9.476;2022-10-18T14:13:56;4.20;;;1.98;;
42478;SDS011;28110;47.080;9.476;2022-10-18T14:16:40;4.80;;;2.25;;
42478;SDS011;28110;47.080;9.476;2022-10-18T14:19:32;12.70;;;3.25;;
42478;SDS011;28110;47.080;9.476;2022-10-18T14:22:09;9.00;;;2.40;;
42478;SDS011;28110;47.080;9.476;2022-10-18T14:24:42;9.85;;;3.00;;
42478;SDS011;28110;47.080;9.476;2022-10-18T14:27:16;8.02;;;2.30;;
42478;SDS011;28110;47.080;9.476;2022-10-18T14:29:44;4.55;;;2.42;;
42478;SDS011;28110;47.080;9.476;2022-10-18T14:32:21;5.85;;;2.63;;
42478;SDS011;28110;47.080;9.476;2022-10-18T14:34:49;5.53;;;2.60;;
42478;SDS011;28110;47.080;9.476;2022-10-18T14:37:49;9.82;;;2.40;;
42478;SDS011;28110;47.080;9.476;2022-10-18T14:40:23;5.43;;;2.50;;
42478;SDS011;28110;47.080;9.476;2022-10-18T14:42:51;4.13;;;2.57;;
42478;SDS011;28110;47.080;9.476;2022-10-18T14:45:17;5.47;;;2.25;;
42478;SDS011;28110;47.080;9.476;2022-10-18T14:47:44;7.13;;;2.45;;
42478;SDS011;28110;47.080;9.476;2022-10-18T14:50:20;7.83;;;2.80;;
42478;SDS011;28110;47.080;9.476;2022-10-18T14:52:47;8.18;;;2.70;;
42478;SDS011;28110;47.080;9.476;2022-10-18T14:55:21;6.70;;;2.45;;
42478;SDS011;28110;47.080;9.476;2022-10-18T14:57:50;9.73;;;3.03;;
42478;SDS011;28110;47.080;9.476;2022-10-18T15:00:18;5.93;;;2.30;;
42478;SDS011;28110;47.080;9.476;2022-10-18T15:02:47;10.38;;;2.42;;
42478;SDS011;28110;47.080;9.476;2022-10-18T15:05:23;8.13;;;2.70;;
42478;SDS011;28110;47.080;9.476;2022-10-18T15:07:51;8.60;;;2.80;;
42478;SDS011;28110;47.080;9.476;2022-10-18T15:10:35;5.53;;;2.45;;
42478;SDS011;28110;47.080;9.476;2022-10-18T15:13:02;4.63;;;2.10;;
42478;SDS011;28110;47.080;9.476;2022-10-18T15:15:30;5.90;;;1.98;;
42478;SDS011;28110;47.080;9.476;2022-10-18T15:17:57;7.90;;;2.55;;
42478;SDS011;28110;47.080;9.476;2022-10-18T15:22:52;4.97;;;1.88;;
42478;SDS011;28110;47.080;9.476;2022-10-18T15:25:28;6.70;;;1.92;;
42478;SDS011;28110;47.080;9.476;2022-10-18T15:27:59;9.25;;;2.63;;
42478;SDS011;28110;47.080;9.476;2022-10-18T15:32:59;7.63;;;3.10;;
42478;SDS011;28110;47.080;9.476;2022-10-18T15:35:30;5.32;;;2.80;;
42478;SDS011;28110;47.080;9.476;2022-10-18T15:38:12;5.90;;;2.20;;
42478;SDS011;28110;47.080;9.476;2022-10-18T15:40:52;8.93;;;2.60;;
42478;SDS011;28110;47.080;9.476;2022-10-18T15:45:50;9.00;;;2.70;;
42478;SDS011;28110;47.080;9.476;2022-10-18T15:48:22;9.60;;;2.22;;
42478;SDS011;28110;47.080;9.476;2022-10-18T15:50:55;5.43;;;2.25;;
42478;SDS011;28110;47.080;9.476;2022-10-18T15:56:28;12.73;;;2.90;;
42478;SDS011;28110;47.080;9.476;2022-10-18T15:58:59;7.80;;;2.53;;
42478;SDS011;28110;47.080;9.476;2022-10-18T16:01:35;10.77;;;2.70;;
42478;SDS011;28110;47.080;9.476;2022-10-18T16:06:53;7.70;;;2.35;;
42478;SDS011;28110;47.080;9.476;2022-10-18T16:09:20;6.78;;;2.38;;
42478;SDS011;28110;47.080;9.476;2022-10-18T16:11:48;4.63;;;2.40;;
42478;SDS011;28110;47.080;9.476;2022-10-18T16:14:15;7.32;;;1.90;;
42478;SDS011;28110;47.080;9.476;2022-10-18T16:16:41;6.30;;;2.50;;
42478;SDS011;28110;47.080;9.476;2022-10-18T16:19:08;4.23;;;2.47;;
42478;SDS011;28110;47.080;9.476;2022-10-18T16:21:37;4.18;;;1.80;;
42478;SDS011;28110;47.080;9.476;2022-10-18T16:24:03;8.95;;;2.60;;
42478;SDS011;28110;47.080;9.476;2022-10-18T16:26:30;4.68;;;2.10;;
42478;SDS011;28110;47.080;9.476;2022-10-18T16:28:56;4.80;;;2.33;;
42478;SDS011;28110;47.080;9.476;2022-10-18T16:31:23;4.67;;;2.23;;
42478;SDS011;28110;47.080;9.476;2022-10-18T16:33:54;9.10;;;2.40;;
42478;SDS011;28110;47.080;9.476;2022-10-18T16:36:22;7.22;;;2.15;;
42478;SDS011;28110;47.080;9.476;2022-10-18T16:38:56;9.27;;;2.47;;
42478;SDS011;28110;47.080;9.476;2022-10-18T16:41:23;7.93;;;2.40;;
42478;SDS011;28110;47.080;9.476;2022-10-18T16:43:49;7.13;;;3.20;;
42478;SDS011;28110;47.080;9.476;2022-10-18T16:46:21;7.82;;;2.67;;
42478;SDS011;28110;47.080;9.476;2022-10-18T16:48:51;6.82;;;2.72;;
42478;SDS011;28110;47.080;9.476;2022-10-18T16:51:17;5.07;;;2.70;;
42478;SDS011;28110;47.080;9.476;2022-10-18T16:53:43;7.85;;;3.08;;
42478;SDS011;28110;47.080;9.476;2022-10-18T16:56:13;10.82;;;3.00;;
42478;SDS011;28110;47.080;9.476;2022-10-18T16:58:49;7.93;;;3.15;;
42478;SDS011;28110;47.080;9.476;2022-10-18T17:01:16;5.80;;;2.80;;
42478;SDS011;28110;47.080;9.476;2022-10-18T17:03:43;6.15;;;2.70;;
42478;SDS011;28110;47.080;9.476;2022-10-18T17:06:13;8.27;;;3.10;;
42478;SDS011;28110;47.080;9.476;2022-10-18T17:08:39;6.90;;;2.50;;
42478;SDS011;28110;47.080;9.476;2022-10-18T17:11:05;3.10;;;2.10;;
42478;SDS011;28110;47.080;9.476;2022-10-18T17:13:30;7.57;;;2.50;;
42478;SDS011;28110;47.080;9.476;2022-10-18T17:15:56;9.23;;;2.17;;
42478;SDS011;28110;47.080;9.476;2022-10-18T17:18:24;8.03;;;2.20;;
42478;SDS011;28110;47.080;9.476;2022-10-18T17:20:54;5.32;;;2.75;;
42478;SDS011;28110;47.080;9.476;2022-10-18T17:23:21;9.15;;;3.42;;
42478;SDS011;28110;47.080;9.476;2022-10-18T17:25:46;11.33;;;3.40;;
42478;SDS011;28110;47.080;9.476;2022-10-18T17:28:13;8.70;;;3.47;;
42478;SDS011;28110;47.080;9.476;2022-10-18T17:30:40;7.15;;;3.30;;
42478;SDS011;28110;47.080;9.476;2022-10-18T17:33:07;11.50;;;3.53;;
42478;SDS011;28110;47.080;9.476;2022-10-18T17:35:33;7.25;;;3.10;;
42478;SDS011;28110;47.080;9.476;2022-10-18T17:37:58;6.15;;;2.90;;